createdAt,value
2018-06-08T00:00:43.984Z,966.59
2018-06-08T00:01:43.969Z,966.66
2018-06-08T00:02:43.971Z,966.85
2018-06-08T00:03:43.972Z,966.71
2018-06-08T00:04:43.964Z,966.8
2018-06-08T00:05:43.971Z,967.09
2018-06-08T00:06:43.973Z,967.21
2018-06-08T00:07:43.976Z,967.13
2018-06-08T00:08:43.969Z,967.39
2018-06-08T00:09:43.967Z,966.97
2018-06-08T00:10:43.982Z,967.06
2018-06-08T00:11:43.979Z,966.82
2018-06-08T00:12:43.993Z,966.71
2018-06-08T00:13:43.995Z,967.09
2018-06-08T00:14:43.968Z,966.69
2018-06-08T00:15:43.987Z,966.86
2018-06-08T00:16:43.984Z,966.64
2018-06-08T00:17:43.997Z,967.27
2018-06-08T00:18:43.969Z,967.34
2018-06-08T00:19:43.985Z,967.21
2018-06-08T00:20:43.992Z,967.71
2018-06-08T00:21:43.990Z,968.02
2018-06-08T00:22:43.997Z,967.36
2018-06-08T00:23:44.034Z,967.36
2018-06-08T00:24:44.012Z,967.56
2018-06-08T00:25:43.991Z,967.45
2018-06-08T00:26:43.996Z,967.62
2018-06-08T00:27:44.037Z,968.15
2018-06-08T00:28:44.013Z,967.45
2018-06-08T00:29:44.017Z,967.64
2018-06-08T00:30:44.024Z,967.8
2018-06-08T00:31:44.032Z,967.86
2018-06-08T00:32:44.012Z,967.68
2018-06-08T00:33:44.023Z,967.97
2018-06-08T00:34:44.037Z,967.96
2018-06-08T00:35:44.014Z,968.03
2018-06-08T00:36:44.038Z,967.8
2018-06-08T00:37:44.026Z,968.01
2018-06-08T00:38:44.029Z,967.78
2018-06-08T00:39:44.061Z,967.86
2018-06-08T00:40:44.044Z,967.56
2018-06-08T00:41:44.027Z,967.84
2018-06-08T00:42:44.024Z,967.66
2018-06-08T00:43:44.042Z,967.6
2018-06-08T00:44:44.060Z,967.69
2018-06-08T00:45:44.021Z,967.72
2018-06-08T00:46:44.051Z,968.01
2018-06-08T00:47:44.030Z,967.87
2018-06-08T00:48:44.040Z,967.52
2018-06-08T00:49:44.043Z,967.53
2018-06-08T00:50:44.034Z,967.59
2018-06-08T00:51:44.069Z,967.66
2018-06-08T00:52:44.077Z,967.22
2018-06-08T00:53:44.062Z,967.8
2018-06-08T00:54:44.097Z,967.42
2018-06-08T00:55:44.063Z,967.67
2018-06-08T00:56:44.044Z,967.69
2018-06-08T00:57:44.090Z,967.89
2018-06-08T00:58:44.057Z,968.06
2018-06-08T00:59:44.066Z,967.95
2018-06-08T01:00:44.066Z,968.16
2018-06-08T01:01:44.074Z,968.17
2018-06-08T01:02:44.086Z,968.44
2018-06-08T01:03:44.061Z,968.33
2018-06-08T01:04:44.095Z,968.39
2018-06-08T01:05:44.078Z,968.69
2018-06-08T01:06:44.081Z,968.38
2018-06-08T01:07:44.088Z,968.7
2018-06-08T01:08:44.100Z,968.48
2018-06-08T01:11:02.465Z,968.56
2018-06-08T01:12:02.518Z,968.57
2018-06-08T01:13:02.507Z,968.67
2018-06-08T01:14:02.514Z,968.43
2018-06-08T01:15:02.468Z,968.6
2018-06-08T01:16:02.489Z,968.48
2018-06-08T01:17:02.479Z,968.78
2018-06-08T01:18:02.485Z,968.58
2018-06-08T01:19:02.495Z,968.51
2018-06-08T01:20:02.473Z,968.58
2018-06-08T01:21:02.506Z,968.64
2018-06-08T01:22:02.489Z,968.56
2018-06-08T01:23:02.485Z,968.46
2018-06-08T01:24:02.492Z,967.94
2018-06-08T01:25:02.524Z,968.25
2018-06-08T01:26:02.504Z,968.33
2018-06-08T01:27:02.489Z,968.21
2018-06-08T01:28:02.514Z,968.27
2018-06-08T01:29:02.484Z,968.16
2018-06-08T01:30:02.515Z,968.46
2018-06-08T01:31:02.516Z,968.27
2018-06-08T01:32:02.516Z,968.23
2018-06-08T01:33:02.508Z,968.03
2018-06-08T01:34:02.539Z,968.45
2018-06-08T01:35:02.523Z,968.15
2018-06-08T01:36:02.527Z,968.14
2018-06-08T01:37:02.513Z,968.23
2018-06-08T01:38:02.562Z,968.43
2018-06-08T01:39:02.510Z,968.23
2018-06-08T01:40:02.547Z,968.34
2018-06-08T01:41:02.501Z,968.16
2018-06-08T01:42:02.518Z,968.4
2018-06-08T01:43:02.509Z,968.3
2018-06-08T01:44:03.220Z,968.45
2018-06-08T01:45:03.090Z,968.04
2018-06-08T01:46:02.553Z,968.03
2018-06-08T01:47:02.541Z,968.3
2018-06-08T01:48:02.522Z,968.21
2018-06-08T01:49:02.534Z,968.2
2018-06-08T01:50:02.532Z,967.92
2018-06-08T01:51:02.581Z,967.71
2018-06-08T01:52:02.550Z,968.23
2018-06-08T01:53:02.573Z,968.4
2018-06-08T01:54:02.556Z,968.54
2018-06-08T01:55:02.540Z,968.37
2018-06-08T01:56:02.534Z,968.18
2018-06-08T01:57:02.534Z,968.51
2018-06-08T01:58:02.540Z,968.89
2018-06-08T01:59:02.568Z,969.05
2018-06-08T02:00:02.569Z,969.35
2018-06-08T02:01:02.565Z,968.97
2018-06-08T02:02:02.558Z,969.29
2018-06-08T02:03:02.541Z,969.28
2018-06-08T02:04:02.572Z,969.3
2018-06-08T02:05:02.551Z,969.8
2018-06-08T02:06:02.556Z,969.89
2018-06-08T02:07:02.576Z,969.91
2018-06-08T02:08:02.548Z,969.61
2018-06-08T02:09:02.560Z,969.79
2018-06-08T02:10:02.587Z,969.89
2018-06-08T02:11:02.594Z,969.92
2018-06-08T02:12:02.557Z,969.99
2018-06-08T02:13:02.610Z,969.92
2018-06-08T02:14:02.597Z,970.01
2018-06-08T02:15:02.570Z,969.8
2018-06-08T02:16:02.606Z,969.7
2018-06-08T02:17:02.589Z,969.67
2018-06-08T02:18:02.564Z,969.7
2018-06-08T02:19:02.607Z,969.66
2018-06-08T02:20:02.581Z,969.97
2018-06-08T02:21:02.580Z,969.78
2018-06-08T02:22:02.583Z,970.56
2018-06-08T02:23:02.600Z,971.03
2018-06-08T02:24:02.582Z,971.43
2018-06-08T02:25:02.599Z,971.43
2018-06-08T02:26:02.592Z,971.69
2018-06-08T02:27:02.603Z,971.89
2018-06-08T02:28:02.587Z,971.85
2018-06-08T02:29:02.584Z,972.07
2018-06-08T02:30:02.602Z,972.3
2018-06-08T02:31:02.597Z,972.8
2018-06-08T02:32:02.600Z,972.4
2018-06-08T02:33:02.613Z,972.43
2018-06-08T02:34:02.617Z,972.41
2018-06-08T02:35:02.608Z,972.64
2018-06-08T02:36:02.598Z,972.65
2018-06-08T02:37:02.608Z,972.29
2018-06-08T02:38:02.617Z,972.19
2018-06-08T02:39:02.626Z,971.92
2018-06-08T02:40:02.626Z,972.42
2018-06-08T02:41:02.631Z,972.05
2018-06-08T02:42:02.629Z,972.28
2018-06-08T02:43:02.632Z,971.97
2018-06-08T02:44:02.637Z,972.06
2018-06-08T02:45:02.636Z,972.06
2018-06-08T02:46:02.649Z,972.25
2018-06-08T02:47:02.646Z,971.93
2018-06-08T02:48:02.653Z,972.16
2018-06-08T02:49:02.646Z,971.96
2018-06-08T02:50:02.648Z,972.13
2018-06-08T02:51:02.622Z,971.93
2018-06-08T02:52:02.631Z,972.1
2018-06-08T02:53:02.642Z,971.92
2018-06-08T02:54:02.668Z,972.04
2018-06-08T02:55:02.653Z,972.02
2018-06-08T02:56:02.658Z,972
2018-06-08T02:57:02.636Z,971.99
2018-06-08T02:58:02.647Z,972.06
2018-06-08T02:59:02.654Z,971.88
2018-06-08T03:00:02.683Z,971.79
2018-06-08T03:01:02.689Z,972.06
2018-06-08T03:02:02.648Z,971.88
2018-06-08T03:03:02.697Z,971.97
2018-06-08T03:04:02.685Z,971.48
2018-06-08T03:05:02.684Z,971.88
2018-06-08T03:06:02.681Z,971.75
2018-06-08T03:07:02.706Z,971.56
2018-06-08T03:08:02.682Z,971.87
2018-06-08T03:09:02.674Z,971.99
2018-06-08T03:10:02.667Z,971.72
2018-06-08T03:11:02.711Z,971.83
2018-06-08T03:12:02.705Z,971.76
2018-06-08T03:13:02.690Z,971.67
2018-06-08T03:14:02.678Z,971.74
2018-06-08T03:15:02.690Z,971.94
2018-06-08T03:16:02.711Z,971.93
2018-06-08T03:17:02.716Z,971.93
2018-06-08T03:18:02.695Z,972.06
2018-06-08T03:19:02.707Z,971.84
2018-06-08T03:20:02.708Z,971.94
2018-06-08T03:21:02.722Z,971.63
2018-06-08T03:22:02.753Z,971.97
2018-06-08T03:23:02.758Z,971.64
2018-06-08T03:24:02.715Z,971.79
2018-06-08T03:25:02.694Z,971.66
2018-06-08T03:26:02.714Z,971.75
2018-06-08T03:27:02.762Z,972.06
2018-06-08T03:28:02.762Z,971.84
2018-06-08T03:29:02.744Z,971.66
2018-06-08T03:30:02.730Z,971.51
2018-06-08T03:31:02.741Z,971.52
2018-06-08T03:32:02.745Z,971.33
2018-06-08T03:33:02.756Z,971.44
2018-06-08T03:34:02.704Z,971.16
2018-06-08T03:35:02.712Z,971.16
2018-06-08T03:36:02.867Z,971.43
2018-06-08T03:37:02.730Z,971.32
2018-06-08T03:38:02.725Z,971.15
2018-06-08T03:39:02.735Z,971.34
2018-06-08T03:40:02.738Z,971.32
2018-06-08T03:41:02.746Z,971.58
2018-06-08T03:42:02.732Z,971.4
2018-06-08T03:43:02.741Z,971.4
2018-06-08T03:44:02.740Z,971.49
2018-06-08T03:45:02.741Z,971.73
2018-06-08T03:46:02.748Z,971.66
2018-06-08T03:47:02.735Z,971.65
2018-06-08T03:48:02.757Z,971.72
2018-06-08T03:49:02.785Z,971.77
2018-06-08T03:50:02.758Z,972.03
2018-06-08T03:51:02.772Z,971.92
2018-06-08T03:52:02.762Z,972.23
2018-06-08T03:53:02.757Z,972.11
2018-06-08T03:54:02.803Z,972.03
2018-06-08T03:55:02.793Z,972.17
2018-06-08T03:56:02.819Z,972.05
2018-06-08T03:57:02.768Z,972.25
2018-06-08T03:58:02.779Z,972.44
2018-06-08T03:59:02.759Z,972.48
2018-06-08T04:00:02.766Z,972.39
2018-06-08T04:01:02.766Z,972.5
2018-06-08T04:02:02.756Z,972.63
2018-06-08T04:03:02.786Z,972.23
2018-06-08T04:04:02.802Z,972.57
2018-06-08T04:05:02.778Z,972.31
2018-06-08T04:06:02.806Z,972.54
2018-06-08T04:07:02.782Z,972.61
2018-06-08T04:08:02.793Z,972.58
2018-06-08T04:09:02.775Z,972.61
2018-06-08T04:10:02.779Z,972.3
2018-06-08T04:11:02.778Z,972.4
2018-06-08T04:12:02.817Z,972.59
2018-06-08T04:13:02.821Z,972.55
2018-06-08T04:14:02.798Z,972.29
2018-06-08T04:15:02.842Z,972.33
2018-06-08T04:16:02.788Z,972.55
2018-06-08T04:17:02.780Z,972.67
2018-06-08T04:18:02.801Z,972.58
2018-06-08T04:19:02.817Z,972.45
2018-06-08T04:20:02.822Z,972.36
2018-06-08T04:21:02.831Z,972.46
2018-06-08T04:22:02.804Z,972.17
2018-06-08T04:23:02.790Z,972.73
2018-06-08T04:24:02.852Z,972.18
2018-06-08T04:25:02.802Z,972.31
2018-06-08T04:26:02.853Z,972.3
2018-06-08T04:27:02.812Z,972.57
2018-06-08T04:28:02.801Z,972.39
2018-06-08T04:29:03.105Z,971.8
2018-06-08T04:30:05.185Z,972.25
2018-06-08T04:31:03.308Z,972.49
2018-06-08T04:32:02.869Z,972.07
2018-06-08T04:33:02.881Z,972.27
2018-06-08T04:34:02.828Z,972.16
2018-06-08T04:35:02.833Z,971.99
2018-06-08T04:36:02.864Z,972.07
2018-06-08T04:37:02.824Z,971.86
2018-06-08T04:38:02.836Z,972.17
2018-06-08T04:39:02.832Z,972
2018-06-08T04:40:02.844Z,971.9
2018-06-08T04:41:02.832Z,971.7
2018-06-08T04:42:02.854Z,971.77
2018-06-08T04:43:02.863Z,971.86
2018-06-08T04:44:02.867Z,971.95
2018-06-08T04:45:02.856Z,972.17
2018-06-08T04:46:02.853Z,972.32
2018-06-08T04:47:02.848Z,972.45
2018-06-08T04:48:02.845Z,972.55
2018-06-08T04:49:02.873Z,972.74
2018-06-08T04:50:02.893Z,972.75
2018-06-08T04:51:02.865Z,972.64
2018-06-08T04:52:02.855Z,972.45
2018-06-08T04:53:02.902Z,972.7
2018-06-08T04:54:02.906Z,972.66
2018-06-08T04:55:02.914Z,972.48
2018-06-08T04:56:02.923Z,972.33
2018-06-08T04:57:02.880Z,972.98
2018-06-08T04:58:02.889Z,972.78
2018-06-08T04:59:02.865Z,972.98
2018-06-08T05:00:02.886Z,972.68
2018-06-08T05:01:02.884Z,972.9
2018-06-08T05:02:02.888Z,972.87
2018-06-08T05:03:02.867Z,972.78
2018-06-08T05:04:02.899Z,972.88
2018-06-08T05:05:02.879Z,972.55
2018-06-08T05:06:02.911Z,972.67
2018-06-08T05:07:02.904Z,972.54
2018-06-08T05:08:02.968Z,973.03
2018-06-08T05:09:02.918Z,973.18
2018-06-08T05:10:02.895Z,973.65
2018-06-08T05:11:02.941Z,974.15
2018-06-08T05:12:02.922Z,974.82
2018-06-08T05:13:02.897Z,975.64
2018-06-08T05:14:02.921Z,976.3
2018-06-08T05:15:02.964Z,976.79
2018-06-08T05:16:02.919Z,977.25
2018-06-08T05:17:02.938Z,977.69
2018-06-08T05:18:02.906Z,977.82
2018-06-08T05:19:02.938Z,977.71
2018-06-08T05:20:02.906Z,977.94
2018-06-08T05:21:02.929Z,977.82
2018-06-08T05:22:02.985Z,977.36
2018-06-08T05:23:02.921Z,977.76
2018-06-08T05:24:02.944Z,977.17
2018-06-08T05:25:02.975Z,977.2
2018-06-08T05:26:02.917Z,977.35
2018-06-08T05:27:02.927Z,977.7
2018-06-08T05:28:02.958Z,977.99
2018-06-08T05:29:02.941Z,977.94
2018-06-08T05:30:02.968Z,977.83
2018-06-08T05:31:02.958Z,977.47
2018-06-08T05:32:02.946Z,976.94
2018-06-08T05:33:02.941Z,977.1
2018-06-08T05:34:03.065Z,977.18
2018-06-08T05:35:04.378Z,977.3
2018-06-08T05:36:03.024Z,977.79
2018-06-08T05:37:02.930Z,977.93
2018-06-08T05:38:03.030Z,978.1
2018-06-08T05:39:02.972Z,978.42
2018-06-08T05:40:02.975Z,978.22
2018-06-08T05:41:02.962Z,978.19
2018-06-08T05:42:02.963Z,977.67
2018-06-08T05:43:03.065Z,977.33
2018-06-08T05:44:03.042Z,977.24
2018-06-08T05:45:02.966Z,976.67
2018-06-08T05:46:02.941Z,975.95
2018-06-08T05:47:02.984Z,975.27
2018-06-08T05:48:03.012Z,974.89
2018-06-08T05:49:02.961Z,974.88
2018-06-08T05:50:03.004Z,974.38
2018-06-08T05:51:02.973Z,974.11
2018-06-08T05:52:02.983Z,973.63
2018-06-08T05:53:02.951Z,973.65
2018-06-08T05:54:02.989Z,974.07
2018-06-08T05:55:02.978Z,974.36
2018-06-08T05:56:03.000Z,974.31
2018-06-08T05:57:03.008Z,974.4
2018-06-08T05:58:02.963Z,974.29
2018-06-08T05:59:02.979Z,974.39
2018-06-08T06:00:02.975Z,974.17
2018-06-08T06:01:02.996Z,974.31
2018-06-08T06:02:03.010Z,974.46
2018-06-08T06:03:03.004Z,974.58
2018-06-08T06:04:02.984Z,974.48
2018-06-08T06:05:03.001Z,974.56
2018-06-08T06:06:02.989Z,974.16
2018-06-08T06:07:03.006Z,974.65
2018-06-08T06:08:02.984Z,975.07
2018-06-08T06:09:03.026Z,975.53
2018-06-08T06:10:03.000Z,975.92
2018-06-08T06:11:02.997Z,976.14
2018-06-08T06:12:03.005Z,976.66
2018-06-08T06:13:03.035Z,977.08
2018-06-08T06:14:02.993Z,977.5
2018-06-08T06:15:03.029Z,977.53
2018-06-08T06:16:03.053Z,977.89
2018-06-08T06:17:03.039Z,977.98
2018-06-08T06:18:03.043Z,977.43
2018-06-08T06:19:03.027Z,977.49
2018-06-08T06:20:03.007Z,977.2
2018-06-08T06:21:03.029Z,977.17
2018-06-08T06:22:03.047Z,977.14
2018-06-08T06:23:03.053Z,977.13
2018-06-08T06:24:03.077Z,977.27
2018-06-08T06:25:03.034Z,977.05
2018-06-08T06:26:03.049Z,976.77
2018-06-08T06:27:03.048Z,976.75
2018-06-08T06:28:03.065Z,976.57
2018-06-08T06:29:03.075Z,976.79
2018-06-08T06:30:03.029Z,976.78
2018-06-08T06:31:03.056Z,976.78
2018-06-08T06:32:03.063Z,976.78
2018-06-08T06:33:03.052Z,977.06
2018-06-08T06:34:03.047Z,977.15
2018-06-08T06:35:03.083Z,976.67
2018-06-08T06:36:03.121Z,976.77
2018-06-08T06:37:03.080Z,976.64
2018-06-08T06:38:03.055Z,976.47
2018-06-08T06:39:03.086Z,976.47
2018-06-08T06:40:03.067Z,976.4
2018-06-08T06:41:03.064Z,976.12
2018-06-08T06:42:03.053Z,976.02
2018-06-08T06:43:03.099Z,975.83
2018-06-08T06:44:03.090Z,975.59
2018-06-08T06:45:03.090Z,975.82
2018-06-08T06:46:03.075Z,975.76
2018-06-08T06:47:03.097Z,975.67
2018-06-08T06:48:03.068Z,975.77
2018-06-08T06:49:03.088Z,975.74
2018-06-08T06:50:03.129Z,975.74
2018-06-08T06:51:03.076Z,976.34
2018-06-08T06:52:03.093Z,976.25
2018-06-08T06:53:03.089Z,976.24
2018-06-08T06:54:03.100Z,976.65
2018-06-08T06:55:03.114Z,977.13
2018-06-08T06:56:03.122Z,977.64
2018-06-08T06:57:03.095Z,977.44
2018-06-08T06:58:03.099Z,978.3
2018-06-08T06:59:03.108Z,978.01
2018-06-08T07:00:03.107Z,978.69
2018-06-08T07:01:03.124Z,978.24
2018-06-08T07:02:03.105Z,978.41
2018-06-08T07:03:03.147Z,978.01
2018-06-08T07:04:03.121Z,977.93
2018-06-08T07:05:03.119Z,977.36
2018-06-08T07:06:03.108Z,977.36
2018-06-08T07:07:03.119Z,976.88
2018-06-08T07:08:03.112Z,976.69
2018-06-08T07:09:03.139Z,976.37
2018-06-08T07:10:03.174Z,976.37
2018-06-08T07:11:03.163Z,976.45
2018-06-08T07:12:03.185Z,976.39
2018-06-08T07:13:03.130Z,976.76
2018-06-08T07:14:03.135Z,977.24
2018-06-08T07:15:03.111Z,977.1
2018-06-08T07:16:03.119Z,976.99
2018-06-08T07:17:03.147Z,976.99
2018-06-08T07:18:03.135Z,976.5
2018-06-08T07:19:03.219Z,976.57
2018-06-08T07:20:03.119Z,976.09
2018-06-08T07:21:03.176Z,975.7
2018-06-08T07:22:03.159Z,975.82
2018-06-08T07:23:03.159Z,975.87
2018-06-08T07:24:03.181Z,975.78
2018-06-08T07:25:03.126Z,975.76
2018-06-08T07:26:03.179Z,976.08
2018-06-08T07:27:03.170Z,976.24
2018-06-08T07:28:03.135Z,976.66
2018-06-08T07:29:03.155Z,977.13
2018-06-08T07:30:03.206Z,977.32
2018-06-08T07:31:03.167Z,977.06
2018-06-08T07:32:03.160Z,977.15
2018-06-08T07:33:03.181Z,977.08
2018-06-08T07:34:03.172Z,977.35
2018-06-08T07:35:03.143Z,977.27
2018-06-08T07:36:03.165Z,977.24
2018-06-08T07:37:03.184Z,977.05
2018-06-08T07:38:03.152Z,976.84
2018-06-08T07:39:03.211Z,976.85
2018-06-08T07:40:03.266Z,976.92
2018-06-08T07:41:03.222Z,977.32
2018-06-08T07:42:03.228Z,977.14
2018-06-08T07:43:03.242Z,976.92
2018-06-08T07:44:03.195Z,976.7
2018-06-08T07:45:03.217Z,976.37
2018-06-08T07:46:03.187Z,976
2018-06-08T07:47:03.190Z,975.78
2018-06-08T07:48:03.189Z,975.67
2018-06-08T07:49:03.182Z,975.47
2018-06-08T07:50:03.238Z,975.05
2018-06-08T07:51:03.209Z,975
2018-06-08T07:52:03.200Z,974.9
2018-06-08T07:53:03.195Z,975.1
2018-06-08T07:54:03.207Z,974.41
2018-06-08T07:55:03.194Z,974.37
2018-06-08T07:56:03.250Z,974.17
2018-06-08T07:57:03.259Z,973.96
2018-06-08T07:58:03.204Z,973.88
2018-06-08T07:59:03.190Z,973.87
2018-06-08T08:00:03.201Z,973.82
2018-06-08T08:01:03.201Z,973.64
2018-06-08T08:02:03.234Z,973.43
2018-06-08T08:03:03.216Z,973.42
2018-06-08T08:04:03.202Z,973.18
2018-06-08T08:05:03.224Z,973.09
2018-06-08T08:06:03.212Z,973.25
2018-06-08T08:07:03.224Z,973.06
2018-06-08T08:08:03.215Z,973.05
2018-06-08T08:09:03.220Z,972.76
2018-06-08T08:10:03.240Z,972.54
2018-06-08T08:11:03.272Z,972.44
2018-06-08T08:12:03.223Z,972.66
2018-06-08T08:13:03.228Z,972.42
2018-06-08T08:14:03.234Z,972.19
2018-06-08T08:15:03.268Z,972.2
2018-06-08T08:16:03.274Z,972.2
2018-06-08T08:17:03.231Z,972.3
2018-06-08T08:18:03.230Z,972.1
2018-06-08T08:19:03.238Z,972.19
2018-06-08T08:20:03.244Z,971.99
2018-06-08T08:21:03.251Z,971.81
2018-06-08T08:22:03.236Z,972.16
2018-06-08T08:23:03.239Z,971.75
2018-06-08T08:24:03.242Z,971.91
2018-06-08T08:25:03.260Z,971.62
2018-06-08T08:26:03.243Z,971.86
2018-06-08T08:27:03.263Z,971.45
2018-06-08T08:28:03.246Z,971.8
2018-06-08T08:29:03.331Z,971.58
2018-06-08T08:30:03.265Z,971.07
2018-06-08T08:31:03.270Z,971.6
2018-06-08T08:32:03.297Z,971.29
2018-06-08T08:33:03.267Z,971.18
2018-06-08T08:34:03.287Z,971.32
2018-06-08T08:35:03.266Z,971.18
2018-06-08T08:36:03.301Z,971.06
2018-06-08T08:37:03.284Z,971.23
2018-06-08T08:38:03.272Z,970.94
2018-06-08T08:39:03.294Z,970.99
2018-06-08T08:40:03.279Z,971
2018-06-08T08:41:03.267Z,970.85
2018-06-08T08:42:03.259Z,970.64
2018-06-08T08:43:03.293Z,970.79
2018-06-08T08:44:03.288Z,970.42
2018-06-08T08:45:03.315Z,970.29
2018-06-08T08:46:03.316Z,970.4
2018-06-08T08:47:03.298Z,970.51
2018-06-08T08:48:03.304Z,970.4
2018-06-08T08:49:03.316Z,970.21
2018-06-08T08:50:03.346Z,970.51
2018-06-08T08:51:03.354Z,970.39
2018-06-08T08:52:03.318Z,970.29
2018-06-08T08:53:03.308Z,970.19
2018-06-08T08:54:03.318Z,970.17
2018-06-08T08:55:03.342Z,970.14
2018-06-08T08:56:03.348Z,969.84
2018-06-08T08:57:03.323Z,969.81
2018-06-08T08:58:03.374Z,969.93
2018-06-08T08:59:03.305Z,969.59
2018-06-08T09:00:03.402Z,969.46
2018-06-08T09:01:03.352Z,969.45
2018-06-08T09:02:03.343Z,969.34
2018-06-08T09:03:03.344Z,969.47
2018-06-08T09:04:03.328Z,969.45
2018-06-08T09:05:03.360Z,969.54
2018-06-08T09:06:03.338Z,969.11
2018-06-08T09:07:03.325Z,969.22
2018-06-08T09:08:03.379Z,969.39
2018-06-08T09:09:03.367Z,969.47
2018-06-08T09:10:03.326Z,969.37
2018-06-08T09:11:03.373Z,968.99
2018-06-08T09:12:03.335Z,969.18
2018-06-08T09:13:03.339Z,968.89
2018-06-08T09:14:03.320Z,969.06
2018-06-08T09:15:03.350Z,969.05
2018-06-08T09:16:03.356Z,969.04
2018-06-08T09:17:03.427Z,968.68
2018-06-08T09:18:03.375Z,968.89
2018-06-08T09:19:03.356Z,968.68
2018-06-08T09:20:03.412Z,968.76
2018-06-08T09:21:03.373Z,968.69
2018-06-08T09:22:03.396Z,968.48
2018-06-08T09:23:03.396Z,968.07
2018-06-08T09:24:03.357Z,968.68
2018-06-08T09:25:03.383Z,968.48
2018-06-08T09:26:03.376Z,968.36
2018-06-08T09:27:03.352Z,968.13
2018-06-08T09:28:03.365Z,968.31
2018-06-08T09:29:03.357Z,968.11
2018-06-08T09:30:03.368Z,967.98
2018-06-08T09:31:03.372Z,967.99
2018-06-08T09:32:03.391Z,967.69
2018-06-08T09:33:03.411Z,967.41
2018-06-08T09:34:03.413Z,967.58
2018-06-08T09:35:03.399Z,967.41
2018-06-08T09:36:03.435Z,967.29
2018-06-08T09:37:03.410Z,967.29
2018-06-08T09:38:03.451Z,967.2
2018-06-08T09:39:03.388Z,967.51
2018-06-08T09:40:03.526Z,967.22
2018-06-08T09:41:03.388Z,967.2
2018-06-08T09:42:03.418Z,966.9
2018-06-08T09:43:03.438Z,966.87
2018-06-08T09:44:03.442Z,966.67
2018-06-08T09:45:03.416Z,966.81
2018-06-08T09:46:03.400Z,966.89
2018-06-08T09:47:03.406Z,966.93
2018-06-08T09:48:03.412Z,966.89
2018-06-08T09:49:03.416Z,966.79
2018-06-08T09:50:03.396Z,966.54
2018-06-08T09:51:03.416Z,966.25
2018-06-08T09:52:03.450Z,966.35
2018-06-08T09:53:03.438Z,966.17
2018-06-08T09:54:03.419Z,966.4
2018-06-08T09:55:03.413Z,966.13
2018-06-08T09:56:03.404Z,966.26
2018-06-08T09:57:03.436Z,966.13
2018-06-08T09:58:03.453Z,966
2018-06-08T09:59:03.454Z,966.08
2018-06-08T10:00:03.435Z,966
2018-06-08T10:01:03.464Z,966.01
2018-06-08T10:02:03.452Z,965.96
2018-06-08T10:03:03.480Z,965.67
2018-06-08T10:04:03.466Z,966.08
2018-06-08T10:05:03.426Z,965.75
2018-06-08T10:06:03.422Z,966.08
2018-06-08T10:07:03.441Z,966.09
2018-06-08T10:08:03.457Z,965.68
2018-06-08T10:09:03.463Z,965.61
2018-06-08T10:10:03.425Z,965.87
2018-06-08T10:11:03.466Z,965.75
2018-06-08T10:12:05.568Z,965.86
2018-06-08T10:13:03.460Z,965.88
2018-06-08T10:14:03.431Z,965.76
2018-06-08T10:15:03.453Z,965.77
2018-06-08T10:16:03.440Z,965.69
2018-06-08T10:17:03.490Z,965.48
2018-06-08T10:18:03.457Z,965.53
2018-06-08T10:19:03.480Z,965.59
2018-06-08T10:20:03.484Z,965.37
2018-06-08T10:21:03.449Z,965.26
2018-06-08T10:22:03.516Z,965.35
2018-06-08T10:23:03.472Z,965.4
2018-06-08T10:24:03.478Z,965.3
2018-06-08T10:25:03.476Z,965.78
2018-06-08T10:26:03.486Z,965.18
2018-06-08T10:30:32.298Z,965.2
2018-06-08T10:31:32.289Z,965.08
2018-06-08T10:32:32.324Z,965.05
2018-06-08T10:33:32.318Z,965.03
2018-06-08T10:34:32.307Z,965.24
2018-06-08T10:35:32.310Z,965.31
2018-06-08T10:36:32.339Z,965.43
2018-06-08T10:37:32.320Z,965.03
2018-06-08T10:38:32.350Z,965
2018-06-08T10:39:32.318Z,965
2018-06-08T10:40:32.342Z,965
2018-06-08T10:41:32.316Z,964.71
2018-06-08T10:42:32.324Z,965.18
2018-06-08T10:43:32.313Z,964.95
2018-06-08T10:44:32.373Z,964.91
2018-06-08T10:45:32.330Z,964.74
2018-06-08T10:46:32.389Z,964.47
2018-06-08T10:47:32.344Z,965
2018-06-08T10:48:32.342Z,964.6
2018-06-08T10:49:32.321Z,964.41
2018-06-08T10:54:01.051Z,964.74
2018-06-08T10:55:01.053Z,964.13
2018-06-08T10:56:00.979Z,964.13
2018-06-08T10:57:01.037Z,964.23
2018-06-08T10:58:01.015Z,964.44
2018-06-08T10:59:01.002Z,964.27
2018-06-08T11:00:00.980Z,963.88
2018-06-08T11:01:01.009Z,964.11
2018-06-08T11:02:01.001Z,963.97
2018-06-08T11:03:01.028Z,963.96
2018-06-08T11:04:01.043Z,963.93
2018-06-08T11:09:18.474Z,963.79
2018-06-08T11:09:30.067Z,963.46
2018-06-08T11:10:30.059Z,963.76
2018-06-08T11:11:30.068Z,963.39
2018-06-08T11:12:30.042Z,963.91
2018-06-08T11:13:30.102Z,963.8
2018-06-08T11:14:30.379Z,963.46
2018-06-08T11:15:30.057Z,963.56
2018-06-08T11:16:30.092Z,963.31
2018-06-08T11:17:30.100Z,963.42
2018-06-08T11:18:30.061Z,963.52
2018-06-08T11:19:30.082Z,963.69
2018-06-08T11:20:30.115Z,963.64
2018-06-08T11:21:30.094Z,963.42
2018-06-08T11:22:30.072Z,963.53
2018-06-08T11:23:30.105Z,963.61
2018-06-08T11:24:30.129Z,963.41
2018-06-08T11:25:30.077Z,963.33
2018-06-08T11:26:30.152Z,963.11
2018-06-08T11:27:30.105Z,963.41
2018-06-08T11:28:30.154Z,963.2
2018-06-08T11:29:30.104Z,963.22
2018-06-08T11:30:30.115Z,963.2
2018-06-08T11:31:30.118Z,963.51
2018-06-08T11:32:30.122Z,963.23
2018-06-08T11:33:30.104Z,963.31
2018-06-08T11:34:30.145Z,963.19
2018-06-08T11:35:30.116Z,963.31
2018-06-08T11:36:30.124Z,963.15
2018-06-08T11:37:30.127Z,963.51
2018-06-08T11:38:30.110Z,963.59
2018-06-08T11:39:30.151Z,963.17
2018-06-08T11:40:30.123Z,963.03
2018-06-08T11:41:30.110Z,963.17
2018-06-08T11:42:30.095Z,962.97
2018-06-08T11:43:30.119Z,962.96
2018-06-08T11:44:30.120Z,962.99
2018-06-08T11:45:30.214Z,962.99
2018-06-08T11:46:30.154Z,963.06
2018-06-08T11:47:30.128Z,963.14
2018-06-08T11:48:30.125Z,963.24
2018-06-08T11:49:30.125Z,963.07
2018-06-08T11:50:30.180Z,963.25
2018-06-08T11:51:30.168Z,963.02
2018-06-08T11:52:30.143Z,962.84
2018-06-08T11:53:30.148Z,962.95
2018-06-08T11:54:30.174Z,962.89
2018-06-08T11:55:30.217Z,962.73
2018-06-08T11:56:30.136Z,962.83
2018-06-08T11:57:30.174Z,963.07
2018-06-08T11:58:30.166Z,962.66
2018-06-08T11:59:30.144Z,962.79
2018-06-08T12:00:30.148Z,962.67
2018-06-08T12:01:30.150Z,962.51
2018-06-08T12:02:30.158Z,962.68
2018-06-08T12:03:30.148Z,962.55
2018-06-08T12:04:30.175Z,962.14
2018-06-08T12:05:30.137Z,962.98
2018-06-08T12:06:30.160Z,962.81
2018-06-08T12:07:30.172Z,962.86
2018-06-08T12:08:30.202Z,962.67
2018-06-08T12:09:30.184Z,962.83
2018-06-08T12:10:30.156Z,962.98
2018-06-08T12:11:30.178Z,962.91
2018-06-08T12:12:30.171Z,962.71
2018-06-08T12:13:30.265Z,962.62
2018-06-08T12:14:30.183Z,962.81
2018-06-08T12:15:30.214Z,962.92
2018-06-08T12:16:30.152Z,962.77
2018-06-08T12:17:30.161Z,962.76
2018-06-08T12:18:30.170Z,962.6
2018-06-08T12:19:30.172Z,962.81
2018-06-08T12:20:30.186Z,962.19
2018-06-08T12:21:30.206Z,962.29
2018-06-08T12:22:30.169Z,962.16
2018-06-08T12:23:30.169Z,962.48
2018-06-08T12:24:30.211Z,962.34
2018-06-08T12:25:30.208Z,962.07
2018-06-08T12:26:30.209Z,962.39
2018-06-08T12:27:30.200Z,962.2
2018-06-08T12:28:30.199Z,961.97
2018-06-08T12:29:30.211Z,962.01
2018-06-08T12:30:30.236Z,961.87
2018-06-08T12:31:30.207Z,961.63
2018-06-08T12:32:30.233Z,961.57
2018-06-08T12:33:30.187Z,961.74
2018-06-08T12:34:30.187Z,961.51
2018-06-08T12:35:30.235Z,962.12
2018-06-08T12:36:30.225Z,962.03
2018-06-08T12:37:30.184Z,962
2018-06-08T12:38:30.232Z,961.55
2018-06-08T12:39:30.202Z,961.88
2018-06-08T12:40:30.224Z,961.72
2018-06-08T12:41:30.215Z,961.61
2018-06-08T12:42:30.213Z,961.37
2018-06-08T12:43:30.286Z,961.22